createdAt,value
2023-03-06T00:02:00.797Z,8.73
2023-03-06T00:05:04.808Z,15.82
2023-03-06T00:08:09.993Z,38.53
2023-03-06T00:11:16.354Z,13.17
2023-03-06T00:14:20.509Z,12.55
2023-03-06T00:17:23.684Z,18.90
2023-03-06T00:20:27.918Z,7.93
2023-03-06T00:23:30.921Z,18.50
2023-03-06T00:26:37.024Z,9.57
2023-03-06T00:29:40.714Z,12.40
2023-03-06T00:32:44.539Z,21.10
2023-03-06T00:35:48.292Z,15.18
2023-03-06T00:38:52.087Z,12.70
2023-03-06T00:41:56.098Z,13.77
2023-03-06T00:45:01.544Z,12.60
2023-03-06T00:48:05.687Z,24.27
2023-03-06T00:51:09.145Z,23.80
2023-03-06T00:54:12.742Z,18.73
2023-03-06T00:57:17.177Z,20.77
2023-03-06T01:00:20.593Z,17.73
2023-03-06T01:03:25.988Z,12.57
2023-03-06T01:06:29.317Z,11.63
2023-03-06T01:09:33.545Z,16.02
2023-03-06T01:12:36.481Z,14.43
2023-03-06T01:15:40.748Z,10.35
2023-03-06T01:18:43.902Z,12.75
2023-03-06T01:21:47.520Z,10.27
2023-03-06T01:24:50.575Z,7.78
2023-03-06T01:27:54.166Z,7.57
2023-03-06T01:30:58.274Z,8.80
2023-03-06T01:34:01.983Z,13.30
2023-03-06T01:37:05.178Z,5.53
2023-03-06T01:40:09.901Z,5.25
2023-03-06T01:43:34.548Z,3.50
2023-03-06T01:46:44.804Z,8.90
2023-03-06T01:49:48.492Z,4.18
2023-03-06T01:52:57.212Z,3.55
2023-03-06T01:56:00.992Z,3.17
2023-03-06T01:59:05.077Z,2.60
2023-03-06T02:02:11.359Z,9.57
2023-03-06T02:05:15.789Z,8.18
2023-03-06T02:08:20.942Z,6.00
2023-03-06T02:11:26.116Z,11.43
2023-03-06T02:14:30.207Z,6.47
2023-03-06T02:17:36.636Z,5.43
2023-03-06T02:20:51.621Z,10.02
2023-03-06T02:24:14.785Z,10.60
2023-03-06T02:27:18.423Z,4.28
2023-03-06T02:30:23.557Z,3.53
2023-03-06T02:33:29.715Z,6.82
2023-03-06T02:36:37.660Z,11.93
2023-03-06T02:39:49.065Z,4.50
2023-03-06T02:42:58.442Z,4.60
2023-03-06T02:46:02.146Z,5.80
2023-03-06T02:49:05.546Z,5.03
2023-03-06T02:52:08.938Z,3.88
2023-03-06T02:55:15.717Z,5.35
2023-03-06T02:58:22.011Z,9.68
2023-03-06T03:01:25.471Z,3.93
2023-03-06T03:04:29.412Z,6.45
2023-03-06T03:07:34.132Z,6.03
2023-03-06T03:10:37.889Z,6.82
2023-03-06T03:13:42.693Z,8.93
2023-03-06T03:16:50.466Z,7.57
2023-03-06T03:19:54.730Z,8.80
2023-03-06T03:22:58.716Z,4.70
2023-03-06T03:26:11.670Z,5.05
2023-03-06T03:29:18.685Z,9.50
2023-03-06T03:32:22.220Z,7.27
2023-03-06T03:35:26.287Z,5.90
2023-03-06T03:38:30.772Z,6.30
2023-03-06T03:41:34.611Z,4.35
2023-03-06T03:44:42.020Z,8.27
2023-03-06T03:47:46.154Z,6.63
2023-03-06T03:50:50.266Z,6.88
2023-03-06T03:53:57.353Z,6.15
2023-03-06T03:57:04.698Z,7.22
2023-03-06T04:00:16.684Z,5.72
2023-03-06T04:03:35.930Z,6.63
2023-03-06T04:06:41.901Z,10.48
2023-03-06T04:09:45.940Z,14.23
2023-03-06T04:12:49.221Z,8.45
2023-03-06T04:15:56.799Z,12.68
2023-03-06T04:19:00.800Z,14.90
2023-03-06T04:22:05.103Z,14.30
2023-03-06T04:25:11.468Z,8.95
2023-03-06T04:28:16.051Z,14.45
2023-03-06T04:31:20.738Z,13.55
2023-03-06T04:34:24.055Z,9.47
2023-03-06T04:37:28.168Z,9.18
2023-03-06T04:40:36.347Z,7.22
2023-03-06T04:43:40.134Z,10.23
2023-03-06T04:46:43.450Z,5.63
2023-03-06T04:49:47.435Z,5.57
2023-03-06T04:52:50.936Z,11.95
2023-03-06T04:55:55.157Z,5.82
2023-03-06T04:58:59.541Z,15.38
2023-03-06T05:02:02.512Z,16.60
2023-03-06T05:05:06.529Z,10.13
2023-03-06T05:08:15.797Z,10.48
2023-03-06T05:11:20.011Z,8.27
2023-03-06T05:14:24.049Z,5.28
2023-03-06T05:17:27.804Z,9.80
2023-03-06T05:20:31.571Z,6.30
2023-03-06T05:23:37.408Z,7.03
2023-03-06T05:26:40.761Z,10.63
2023-03-06T05:29:44.194Z,6.85
2023-03-06T05:32:47.916Z,6.00
2023-03-06T05:35:51.231Z,12.30
2023-03-06T05:38:54.749Z,10.02
2023-03-06T05:41:58.942Z,7.60
2023-03-06T05:45:04.515Z,12.27
2023-03-06T05:48:08.713Z,4.00
2023-03-06T05:51:12.617Z,5.93
2023-03-06T05:54:16.696Z,3.33
2023-03-06T05:57:22.106Z,2.72
2023-03-06T06:00:26.370Z,9.52
2023-03-06T06:03:30.106Z,7.05
2023-03-06T06:06:33.422Z,8.87
2023-03-06T06:09:36.620Z,5.13
2023-03-06T06:12:40.831Z,7.68
2023-03-06T06:15:44.644Z,8.52
2023-03-06T06:18:48.374Z,4.10
2023-03-06T06:21:54.500Z,3.13
2023-03-06T06:24:58.614Z,4.93
2023-03-06T06:28:02.413Z,4.53
2023-03-06T06:31:11.819Z,8.15
2023-03-06T06:34:15.760Z,9.70
2023-03-06T06:37:19.842Z,9.33
2023-03-06T06:40:24.834Z,5.22
2023-03-06T06:43:29.278Z,9.02
2023-03-06T06:47:20.391Z,8.13
2023-03-06T06:49:58.164Z,6.35
2023-03-06T06:53:01.301Z,2.67
2023-03-06T06:56:05.358Z,9.30
2023-03-06T06:59:16.539Z,4.22
2023-03-06T07:02:21.494Z,7.18
2023-03-06T07:05:25.211Z,15.52
2023-03-06T07:08:29.837Z,7.43
2023-03-06T07:11:33.162Z,23.83
2023-03-06T07:14:37.628Z,12.48
2023-03-06T07:17:41.500Z,5.40
2023-03-06T07:20:44.871Z,23.75
2023-03-06T07:23:48.140Z,11.00
2023-03-06T07:26:53.221Z,8.68
2023-03-06T07:29:56.945Z,11.70
2023-03-06T07:33:00.823Z,12.30
2023-03-06T07:36:04.152Z,10.18
2023-03-06T07:39:08.933Z,8.97
2023-03-06T07:42:14.824Z,16.60
2023-03-06T07:45:29.057Z,19.33
2023-03-06T07:48:32.774Z,10.88
2023-03-06T07:51:36.840Z,22.52
2023-03-06T07:54:40.460Z,9.33
2023-03-06T07:57:43.929Z,12.77
2023-03-06T08:00:47.078Z,12.88
2023-03-06T08:03:51.876Z,5.18
2023-03-06T08:06:58.184Z,7.95
2023-03-06T08:10:02.053Z,7.40
2023-03-06T08:13:05.670Z,19.83
2023-03-06T08:16:11.143Z,38.25
2023-03-06T08:19:14.919Z,21.70
2023-03-06T08:22:19.027Z,7.68
2023-03-06T08:25:22.378Z,13.23
2023-03-06T08:28:27.379Z,17.70
2023-03-06T08:31:40.698Z,18.55
2023-03-06T08:34:46.376Z,18.05
2023-03-06T08:37:50.122Z,5.28
2023-03-06T08:40:53.365Z,6.93
2023-03-06T08:43:56.379Z,3.97
2023-03-06T08:47:00.330Z,7.85
2023-03-06T08:50:03.521Z,17.10
2023-03-06T08:53:07.028Z,5.82
2023-03-06T08:56:34.638Z,7.67
2023-03-06T08:59:38.164Z,8.88
2023-03-06T09:02:42.020Z,16.45
2023-03-06T09:05:46.082Z,6.22
2023-03-06T09:08:51.208Z,7.68
2023-03-06T09:11:55.567Z,10.50
2023-03-06T09:14:59.416Z,7.65
2023-03-06T09:18:03.666Z,3.63
2023-03-06T09:21:09.304Z,6.43
2023-03-06T09:24:13.332Z,9.18
2023-03-06T09:27:17.217Z,17.97
2023-03-06T09:30:21.292Z,22.27
2023-03-06T09:33:25.125Z,19.30
2023-03-06T09:36:28.518Z,25.08
2023-03-06T09:39:31.732Z,14.00
2023-03-06T09:42:36.109Z,16.10
2023-03-06T09:45:40.072Z,6.32
2023-03-06T09:48:57.882Z,10.63
2023-03-06T09:52:24.846Z,9.57
2023-03-06T09:55:31.980Z,17.75
2023-03-06T09:58:42.304Z,25.97
2023-03-06T10:02:02.577Z,20.25
2023-03-06T10:05:11.247Z,8.65
2023-03-06T10:08:44.076Z,13.10
2023-03-06T10:11:57.775Z,11.05
2023-03-06T10:15:09.835Z,24.67
2023-03-06T10:18:14.330Z,10.60
2023-03-06T10:21:33.208Z,15.45
2023-03-06T10:24:56.122Z,21.30
2023-03-06T10:28:12.422Z,14.10
2023-03-06T10:31:26.139Z,15.73
2023-03-06T10:34:33.674Z,13.85
2023-03-06T10:37:37.315Z,13.60
2023-03-06T10:40:57.981Z,19.90
2023-03-06T10:44:02.383Z,12.43
2023-03-06T10:47:31.125Z,12.20
2023-03-06T10:50:35.082Z,13.38
2023-03-06T10:53:59.718Z,16.42
2023-03-06T10:57:26.634Z,20.55
2023-03-06T11:00:39.529Z,21.23
2023-03-06T11:03:42.687Z,11.63
2023-03-06T11:06:46.883Z,6.45
2023-03-06T11:09:59.134Z,9.77
2023-03-06T11:13:23.487Z,13.40
2023-03-06T11:16:31.370Z,7.40
2023-03-06T11:19:35.633Z,9.40
2023-03-06T11:22:41.358Z,16.27
2023-03-06T11:25:51.294Z,11.13
2023-03-06T11:29:00.936Z,14.88
2023-03-06T11:32:12.784Z,11.35
2023-03-06T11:36:01.387Z,13.37
2023-03-06T11:39:15.531Z,20.67
2023-03-06T11:42:35.346Z,24.55
2023-03-06T11:45:48.832Z,20.95
2023-03-06T11:49:06.164Z,19.73
2023-03-06T11:52:19.481Z,20.13
2023-03-06T11:55:49.929Z,15.82
2023-03-06T11:59:15.264Z,21.38
2023-03-06T12:02:48.553Z,17.90
2023-03-06T12:06:04.778Z,29.45
2023-03-06T12:09:13.616Z,21.90
2023-03-06T12:12:42.097Z,17.08
2023-03-06T12:15:48.710Z,14.88
2023-03-06T12:19:23.553Z,26.58
2023-03-06T12:23:02.448Z,16.15
2023-03-06T12:26:20.087Z,19.27
2023-03-06T12:29:50.952Z,14.95
2023-03-06T12:33:03.388Z,22.13
2023-03-06T12:36:22.132Z,24.40
2023-03-06T12:40:11.824Z,18.25
2023-03-06T12:43:33.933Z,22.70
2023-03-06T12:46:47.785Z,23.35
2023-03-06T12:50:04.673Z,24.23
2023-03-06T12:53:16.395Z,29.10
2023-03-06T12:56:22.423Z,17.42
2023-03-06T12:59:45.105Z,29.43
2023-03-06T13:03:06.066Z,16.65
2023-03-06T13:06:44.944Z,19.52
2023-03-06T13:09:57.273Z,15.13
2023-03-06T13:13:22.457Z,18.60
2023-03-06T13:16:34.867Z,16.70
2023-03-06T13:19:38.696Z,26.15
2023-03-06T13:22:44.521Z,20.35
2023-03-06T13:25:50.317Z,21.83
2023-03-06T13:28:56.030Z,19.63
2023-03-06T13:32:02.919Z,13.47
2023-03-06T13:35:34.514Z,15.10
2023-03-06T13:38:54.899Z,15.50
2023-03-06T13:42:00.342Z,15.40
2023-03-06T13:45:16.535Z,18.98
2023-03-06T13:48:44.248Z,27.90
2023-03-06T13:51:54.568Z,16.90
2023-03-06T13:55:23.461Z,14.38
2023-03-06T13:58:56.899Z,14.55
2023-03-06T14:02:41.844Z,20.00
2023-03-06T14:05:51.124Z,16.23
2023-03-06T14:08:55.088Z,21.75
2023-03-06T14:12:07.415Z,12.30
2023-03-06T14:15:37.972Z,10.52
2023-03-06T14:18:47.019Z,16.23
2023-03-06T14:21:58.185Z,10.93
2023-03-06T14:25:06.291Z,13.20
2023-03-06T14:28:31.967Z,15.20
2023-03-06T14:31:41.738Z,18.83
2023-03-06T14:34:47.705Z,15.50
2023-03-06T14:37:54.766Z,13.70
2023-03-06T14:40:58.949Z,17.90
2023-03-06T14:44:27.085Z,35.40
2023-03-06T14:47:36.462Z,13.98
2023-03-06T14:50:41.089Z,11.80
2023-03-06T14:53:49.070Z,10.90
2023-03-06T14:56:57.412Z,11.02
2023-03-06T15:00:01.353Z,10.88
2023-03-06T15:03:13.541Z,11.75
2023-03-06T15:06:23.586Z,11.75
2023-03-06T15:09:36.576Z,12.40
2023-03-06T15:12:40.096Z,7.40
2023-03-06T15:15:43.202Z,14.32
2023-03-06T15:19:05.151Z,13.55
2023-03-06T15:22:21.666Z,9.10
2023-03-06T15:25:34.048Z,11.53
2023-03-06T15:28:40.104Z,8.25
2023-03-06T15:31:46.594Z,14.63
2023-03-06T15:35:25.238Z,10.73
2023-03-06T15:38:34.939Z,6.90
2023-03-06T15:41:39.614Z,12.17
2023-03-06T15:44:43.630Z,11.73
2023-03-06T15:47:49.263Z,33.15
2023-03-06T15:50:53.474Z,37.08
2023-03-06T15:54:09.775Z,64.78
2023-03-06T15:57:27.029Z,59.63
2023-03-06T16:00:36.110Z,19.70
2023-03-06T16:03:39.387Z,69.47
2023-03-06T16:06:45.364Z,100.25
2023-03-06T16:09:49.820Z,116.55
2023-03-06T16:13:00.400Z,117.00
2023-03-06T16:16:04.114Z,111.97
2023-03-06T16:19:25.267Z,135.63
2023-03-06T16:22:33.501Z,122.72
2023-03-06T16:25:42.881Z,114.55
2023-03-06T16:28:47.621Z,109.97
2023-03-06T16:31:51.101Z,108.85
2023-03-06T16:34:54.312Z,108.38
2023-03-06T16:37:59.367Z,108.78
2023-03-06T16:41:03.069Z,106.90
2023-03-06T16:44:08.440Z,104.50
2023-03-06T16:47:13.312Z,111.88
2023-03-06T16:50:23.316Z,103.15
2023-03-06T16:53:27.100Z,102.13
2023-03-06T16:56:30.933Z,94.20
2023-03-06T16:59:34.825Z,107.13
2023-03-06T17:02:41.226Z,105.65
2023-03-06T17:05:45.425Z,92.97
2023-03-06T17:08:50.787Z,89.78
2023-03-06T17:11:54.906Z,90.60
2023-03-06T17:14:59.113Z,90.60
2023-03-06T17:18:02.616Z,81.55
2023-03-06T17:21:08.206Z,84.47
2023-03-06T17:24:12.474Z,80.68
2023-03-06T17:27:15.590Z,80.55
2023-03-06T17:30:18.672Z,81.40
2023-03-06T17:33:22.447Z,89.18
2023-03-06T17:36:26.489Z,75.85
2023-03-06T17:39:34.993Z,75.45
2023-03-06T17:42:42.656Z,71.30
2023-03-06T17:45:47.977Z,81.23
2023-03-06T17:48:51.884Z,78.10
2023-03-06T17:51:58.524Z,80.88
2023-03-06T17:55:02.522Z,70.95
2023-03-06T17:58:05.630Z,85.47
2023-03-06T18:01:21.405Z,73.07
2023-03-06T18:04:24.980Z,69.28
2023-03-06T18:07:29.208Z,53.97
2023-03-06T18:10:32.905Z,45.22
2023-03-06T18:13:39.487Z,41.20
2023-03-06T18:16:43.295Z,38.80
2023-03-06T18:19:47.152Z,35.50
2023-03-06T18:22:50.973Z,35.72
2023-03-06T18:26:06.143Z,37.50
2023-03-06T18:29:11.263Z,33.95
2023-03-06T18:32:15.550Z,36.93
2023-03-06T18:35:20.094Z,32.13
2023-03-06T18:38:24.314Z,40.75
2023-03-06T18:41:28.051Z,36.30
2023-03-06T18:44:31.446Z,41.58
2023-03-06T18:47:35.383Z,30.07
2023-03-06T18:50:38.857Z,34.72
2023-03-06T18:53:43.082Z,29.60
2023-03-06T18:56:47.206Z,34.60
2023-03-06T18:59:50.686Z,30.75
2023-03-06T19:02:54.369Z,30.33
2023-03-06T19:05:59.685Z,36.78
2023-03-06T19:09:03.478Z,23.35
2023-03-06T19:12:07.707Z,26.98
2023-03-06T19:15:11.416Z,23.17
2023-03-06T19:18:18.031Z,29.37
2023-03-06T19:21:23.623Z,26.95
2023-03-06T19:24:27.569Z,35.10
2023-03-06T19:27:32.127Z,27.90
2023-03-06T19:30:36.326Z,31.65
2023-03-06T19:33:41.169Z,23.43
2023-03-06T19:36:45.455Z,27.02
2023-03-06T19:39:49.194Z,21.50
2023-03-06T19:42:52.982Z,24.52
2023-03-06T19:45:57.281Z,24.85
2023-03-06T19:49:06.244Z,26.23
2023-03-06T19:52:09.506Z,22.55
2023-03-06T19:55:13.597Z,23.25
2023-03-06T19:58:16.989Z,23.70
2023-03-06T20:01:23.379Z,22.80
2023-03-06T20:04:27.214Z,21.80
2023-03-06T20:07:30.607Z,11.27
2023-03-06T20:10:38.833Z,13.10
2023-03-06T20:13:47.186Z,10.40
2023-03-06T20:16:50.797Z,8.82
2023-03-06T20:19:55.100Z,11.47
2023-03-06T20:23:03.028Z,12.23
2023-03-06T20:26:12.532Z,10.27
2023-03-06T20:29:16.019Z,10.27
2023-03-06T20:32:20.033Z,12.07
2023-03-06T20:35:23.638Z,11.50
2023-03-06T20:38:27.898Z,9.77
2023-03-06T20:41:32.763Z,8.75
2023-03-06T20:44:36.835Z,13.77
2023-03-06T20:47:39.881Z,14.63
2023-03-06T20:50:42.929Z,12.33
2023-03-06T20:53:50.756Z,11.35
2023-03-06T20:56:53.869Z,9.95
2023-03-06T20:59:57.973Z,9.10
2023-03-06T21:03:01.009Z,7.32
2023-03-06T21:06:04.341Z,7.83
2023-03-06T21:09:07.999Z,8.95
2023-03-06T21:12:11.556Z,9.00
2023-03-06T21:15:15.308Z,6.03
2023-03-06T21:18:19.429Z,8.38
2023-03-06T21:21:25.938Z,8.93
2023-03-06T21:24:29.206Z,8.85
2023-03-06T21:27:32.952Z,9.48
2023-03-06T21:30:35.956Z,7.47
2023-03-06T21:33:40.402Z,7.30
2023-03-06T21:36:44.102Z,10.13
2023-03-06T21:39:47.897Z,11.38
2023-03-06T21:42:51.546Z,11.10
2023-03-06T21:45:58.742Z,9.20
2023-03-06T21:49:04.671Z,11.82
2023-03-06T21:52:08.673Z,13.40
2023-03-06T21:55:12.446Z,8.85
2023-03-06T21:58:16.200Z,10.63
2023-03-06T22:01:23.085Z,13.18
2023-03-06T22:04:26.570Z,12.07
2023-03-06T22:07:29.783Z,10.47
2023-03-06T22:10:33.848Z,12.65
2023-03-06T22:13:38.809Z,11.38
2023-03-06T22:16:42.434Z,10.13
2023-03-06T22:19:46.198Z,9.90
2023-03-06T22:22:50.344Z,11.30
2023-03-06T22:25:53.824Z,12.38
2023-03-06T22:28:58.609Z,11.98
2023-03-06T22:32:02.032Z,14.05
2023-03-06T22:35:06.449Z,12.93
2023-03-06T22:38:10.209Z,15.10
2023-03-06T22:41:17.315Z,15.35
2023-03-06T22:44:20.615Z,19.55
2023-03-06T22:47:23.638Z,21.02
2023-03-06T22:50:26.844Z,19.17
2023-03-06T22:53:31.108Z,18.20
2023-03-06T22:56:34.992Z,17.50
2023-03-06T22:59:39.178Z,23.48
2023-03-06T23:02:42.938Z,21.67
2023-03-06T23:05:46.046Z,22.67
2023-03-06T23:08:55.063Z,20.23
2023-03-06T23:11:58.636Z,24.10
2023-03-06T23:15:20.403Z,21.15
2023-03-06T23:18:42.659Z,24.63
2023-03-06T23:22:04.963Z,23.20
2023-03-06T23:25:27.758Z,22.00
2023-03-06T23:28:31.264Z,19.27
2023-03-06T23:31:34.259Z,18.50
2023-03-06T23:34:37.246Z,21.27
2023-03-06T23:37:40.610Z,21.88
2023-03-06T23:40:44.469Z,21.27
2023-03-06T23:43:49.665Z,14.88
2023-03-06T23:46:53.677Z,16.40
2023-03-06T23:49:57.643Z,14.15
2023-03-06T23:53:00.710Z,18.77
2023-03-06T23:56:07.260Z,18.20
2023-03-06T23:59:11.881Z,12.50
